sensor_id;sensor_type;location;lat;lon;timestamp;P1;durP1;ratioP1;P2;durP2;ratioP2
69126;SDS011;56688;50.234;19.292;2022-12-07T00:01:12;28.20;;;15.40;;
69126;SDS011;56688;50.234;19.292;2022-12-07T00:03:41;23.50;;;12.40;;
69126;SDS011;56688;50.234;19.292;2022-12-07T00:06:10;27.10;;;15.20;;
69126;SDS011;56688;50.234;19.292;2022-12-07T00:08:38;11.90;;;7.00;;
69126;SDS011;56688;50.234;19.292;2022-12-07T00:11:06;40.00;;;19.60;;
69126;SDS011;56688;50.234;19.292;2022-12-07T00:13:35;22.40;;;12.30;;
69126;SDS011;56688;50.234;19.292;2022-12-07T00:16:03;8.70;;;5.30;;
69126;SDS011;56688;50.234;19.292;2022-12-07T00:18:33;15.70;;;8.30;;
69126;SDS011;56688;50.234;19.292;2022-12-07T00:21:00;49.10;;;21.50;;
69126;SDS011;56688;50.234;19.292;2022-12-07T00:23:29;74.30;;;30.20;;
69126;SDS011;56688;50.234;19.292;2022-12-07T00:26:02;19.50;;;10.90;;
69126;SDS011;56688;50.234;19.292;2022-12-07T00:28:30;21.70;;;10.40;;
69126;SDS011;56688;50.234;19.292;2022-12-07T00:31:01;22.90;;;11.80;;
69126;SDS011;56688;50.234;19.292;2022-12-07T00:33:31;20.50;;;10.80;;
69126;SDS011;56688;50.234;19.292;2022-12-07T00:35:58;15.30;;;9.60;;
69126;SDS011;56688;50.234;19.292;2022-12-07T00:38:27;34.10;;;16.80;;
69126;SDS011;56688;50.234;19.292;2022-12-07T00:40:56;38.70;;;17.50;;
69126;SDS011;56688;50.234;19.292;2022-12-07T00:43:25;38.70;;;15.60;;
69126;SDS011;56688;50.234;19.292;2022-12-07T00:45:53;18.40;;;9.30;;
69126;SDS011;56688;50.234;19.292;2022-12-07T00:48:21;17.90;;;10.10;;
69126;SDS011;56688;50.234;19.292;2022-12-07T00:50:49;19.70;;;10.00;;
69126;SDS011;56688;50.234;19.292;2022-12-07T00:53:16;26.90;;;12.90;;
69126;SDS011;56688;50.234;19.292;2022-12-07T00:55:43;24.20;;;12.50;;
69126;SDS011;56688;50.234;19.292;2022-12-07T00:58:10;27.20;;;12.60;;
69126;SDS011;56688;50.234;19.292;2022-12-07T01:00:38;32.70;;;13.90;;
69126;SDS011;56688;50.234;19.292;2022-12-07T01:03:07;27.70;;;12.90;;
69126;SDS011;56688;50.234;19.292;2022-12-07T01:05:36;18.00;;;10.70;;
69126;SDS011;56688;50.234;19.292;2022-12-07T01:08:03;17.50;;;9.80;;
69126;SDS011;56688;50.234;19.292;2022-12-07T01:10:31;16.20;;;9.40;;
69126;SDS011;56688;50.234;19.292;2022-12-07T01:12:58;28.30;;;12.60;;
69126;SDS011;56688;50.234;19.292;2022-12-07T01:15:25;18.70;;;10.00;;
69126;SDS011;56688;50.234;19.292;2022-12-07T01:17:53;21.10;;;11.40;;
69126;SDS011;56688;50.234;19.292;2022-12-07T01:20:21;17.10;;;9.80;;
69126;SDS011;56688;50.234;19.292;2022-12-07T01:22:48;14.90;;;9.00;;
69126;SDS011;56688;50.234;19.292;2022-12-07T01:25:15;19.00;;;10.40;;
69126;SDS011;56688;50.234;19.292;2022-12-07T01:27:42;18.50;;;10.30;;
69126;SDS011;56688;50.234;19.292;2022-12-07T01:30:09;16.60;;;9.50;;
69126;SDS011;56688;50.234;19.292;2022-12-07T01:32:37;14.00;;;8.80;;
69126;SDS011;56688;50.234;19.292;2022-12-07T01:35:04;17.20;;;9.80;;
69126;SDS011;56688;50.234;19.292;2022-12-07T01:37:35;17.90;;;11.00;;
69126;SDS011;56688;50.234;19.292;2022-12-07T01:40:03;17.40;;;10.80;;
69126;SDS011;56688;50.234;19.292;2022-12-07T01:42:33;18.60;;;10.70;;
69126;SDS011;56688;50.234;19.292;2022-12-07T01:47:44;20.00;;;10.60;;
69126;SDS011;56688;50.234;19.292;2022-12-07T01:50:14;17.60;;;10.70;;
69126;SDS011;56688;50.234;19.292;2022-12-07T01:52:41;17.00;;;10.60;;
69126;SDS011;56688;50.234;19.292;2022-12-07T01:55:12;18.30;;;11.90;;
69126;SDS011;56688;50.234;19.292;2022-12-07T01:57:42;18.50;;;11.50;;
69126;SDS011;56688;50.234;19.292;2022-12-07T02:00:12;19.50;;;11.50;;
69126;SDS011;56688;50.234;19.292;2022-12-07T02:05:24;17.30;;;10.50;;
69126;SDS011;56688;50.234;19.292;2022-12-07T02:07:52;20.20;;;11.70;;
69126;SDS011;56688;50.234;19.292;2022-12-07T02:10:22;18.60;;;11.70;;
69126;SDS011;56688;50.234;19.292;2022-12-07T02:12:58;21.20;;;12.40;;
69126;SDS011;56688;50.234;19.292;2022-12-07T02:15:29;21.40;;;12.90;;
69126;SDS011;56688;50.234;19.292;2022-12-07T02:29:21;17.60;;;10.90;;
69126;SDS011;56688;50.234;19.292;2022-12-07T02:34:40;21.40;;;12.80;;
69126;SDS011;56688;50.234;19.292;2022-12-07T02:37:18;25.30;;;13.50;;
69126;SDS011;56688;50.234;19.292;2022-12-07T02:39:57;23.30;;;14.40;;
69126;SDS011;56688;50.234;19.292;2022-12-07T02:42:30;25.60;;;14.40;;
69126;SDS011;56688;50.234;19.292;2022-12-07T02:45:02;27.00;;;14.50;;
69126;SDS011;56688;50.234;19.292;2022-12-07T02:47:31;22.40;;;14.00;;
69126;SDS011;56688;50.234;19.292;2022-12-07T02:50:02;26.10;;;15.20;;
69126;SDS011;56688;50.234;19.292;2022-12-07T02:52:31;26.20;;;15.10;;
69126;SDS011;56688;50.234;19.292;2022-12-07T02:54:58;27.00;;;15.80;;
69126;SDS011;56688;50.234;19.292;2022-12-07T03:18:54;25.30;;;15.00;;
69126;SDS011;56688;50.234;19.292;2022-12-07T03:21:27;23.10;;;14.80;;
69126;SDS011;56688;50.234;19.292;2022-12-07T03:24:00;23.90;;;14.70;;
69126;SDS011;56688;50.234;19.292;2022-12-07T03:29:05;29.40;;;15.70;;
69126;SDS011;56688;50.234;19.292;2022-12-07T03:31:37;26.60;;;15.50;;
69126;SDS011;56688;50.234;19.292;2022-12-07T03:34:11;29.10;;;15.30;;
69126;SDS011;56688;50.234;19.292;2022-12-07T03:36:40;24.60;;;15.10;;
69126;SDS011;56688;50.234;19.292;2022-12-07T03:39:17;22.70;;;15.70;;
69126;SDS011;56688;50.234;19.292;2022-12-07T03:41:46;22.80;;;13.70;;
69126;SDS011;56688;50.234;19.292;2022-12-07T03:44:14;24.40;;;12.50;;
69126;SDS011;56688;50.234;19.292;2022-12-07T03:46:44;29.50;;;16.70;;
69126;SDS011;56688;50.234;19.292;2022-12-07T03:57:35;19.50;;;10.80;;
69126;SDS011;56688;50.234;19.292;2022-12-07T04:00:04;24.50;;;13.80;;
69126;SDS011;56688;50.234;19.292;2022-12-07T04:02:37;24.00;;;13.90;;
69126;SDS011;56688;50.234;19.292;2022-12-07T04:05:05;25.40;;;14.00;;
69126;SDS011;56688;50.234;19.292;2022-12-07T04:07:33;19.20;;;11.30;;
69126;SDS011;56688;50.234;19.292;2022-12-07T04:10:00;25.90;;;13.10;;
69126;SDS011;56688;50.234;19.292;2022-12-07T04:12:27;20.60;;;12.60;;
69126;SDS011;56688;50.234;19.292;2022-12-07T04:14:54;19.50;;;12.30;;
69126;SDS011;56688;50.234;19.292;2022-12-07T04:17:20;22.30;;;12.90;;
69126;SDS011;56688;50.234;19.292;2022-12-07T04:19:47;24.40;;;13.50;;
69126;SDS011;56688;50.234;19.292;2022-12-07T04:22:14;22.30;;;13.20;;
69126;SDS011;56688;50.234;19.292;2022-12-07T04:24:41;23.70;;;12.40;;
69126;SDS011;56688;50.234;19.292;2022-12-07T04:27:07;17.50;;;10.40;;
69126;SDS011;56688;50.234;19.292;2022-12-07T04:29:34;21.70;;;12.20;;
69126;SDS011;56688;50.234;19.292;2022-12-07T04:32:01;18.30;;;10.20;;
69126;SDS011;56688;50.234;19.292;2022-12-07T04:34:28;13.70;;;9.10;;
69126;SDS011;56688;50.234;19.292;2022-12-07T04:36:55;19.80;;;12.20;;
69126;SDS011;56688;50.234;19.292;2022-12-07T04:39:23;22.30;;;12.40;;
69126;SDS011;56688;50.234;19.292;2022-12-07T04:41:52;21.70;;;12.00;;
69126;SDS011;56688;50.234;19.292;2022-12-07T04:44:19;17.20;;;11.30;;
69126;SDS011;56688;50.234;19.292;2022-12-07T04:46:47;18.20;;;11.20;;
69126;SDS011;56688;50.234;19.292;2022-12-07T04:49:15;16.60;;;10.20;;
69126;SDS011;56688;50.234;19.292;2022-12-07T04:51:43;18.80;;;10.60;;
69126;SDS011;56688;50.234;19.292;2022-12-07T04:54:11;19.80;;;12.50;;
69126;SDS011;56688;50.234;19.292;2022-12-07T04:56:39;19.40;;;11.70;;
69126;SDS011;56688;50.234;19.292;2022-12-07T04:59:06;22.00;;;12.00;;
69126;SDS011;56688;50.234;19.292;2022-12-07T05:01:33;20.70;;;11.60;;
69126;SDS011;56688;50.234;19.292;2022-12-07T05:04:00;21.90;;;12.30;;
69126;SDS011;56688;50.234;19.292;2022-12-07T05:06:27;18.80;;;10.70;;
69126;SDS011;56688;50.234;19.292;2022-12-07T05:08:54;18.30;;;10.10;;
69126;SDS011;56688;50.234;19.292;2022-12-07T05:11:21;21.10;;;11.70;;
69126;SDS011;56688;50.234;19.292;2022-12-07T05:14:05;24.30;;;11.80;;
69126;SDS011;56688;50.234;19.292;2022-12-07T05:16:42;25.10;;;12.30;;
69126;SDS011;56688;50.234;19.292;2022-12-07T05:19:11;22.70;;;11.50;;
69126;SDS011;56688;50.234;19.292;2022-12-07T05:21:38;23.30;;;10.70;;
69126;SDS011;56688;50.234;19.292;2022-12-07T05:24:06;23.20;;;12.20;;
69126;SDS011;56688;50.234;19.292;2022-12-07T05:26:34;21.50;;;11.80;;
69126;SDS011;56688;50.234;19.292;2022-12-07T05:29:01;23.60;;;10.60;;
69126;SDS011;56688;50.234;19.292;2022-12-07T05:31:28;22.00;;;11.90;;
69126;SDS011;56688;50.234;19.292;2022-12-07T05:33:55;23.50;;;12.20;;
69126;SDS011;56688;50.234;19.292;2022-12-07T05:36:22;27.60;;;13.60;;
69126;SDS011;56688;50.234;19.292;2022-12-07T05:38:49;21.50;;;10.80;;
69126;SDS011;56688;50.234;19.292;2022-12-07T05:41:16;20.50;;;11.00;;
69126;SDS011;56688;50.234;19.292;2022-12-07T05:43:59;22.00;;;11.80;;
69126;SDS011;56688;50.234;19.292;2022-12-07T05:46:27;24.50;;;13.20;;
69126;SDS011;56688;50.234;19.292;2022-12-07T05:48:53;20.50;;;11.50;;
69126;SDS011;56688;50.234;19.292;2022-12-07T05:51:20;23.50;;;12.90;;
69126;SDS011;56688;50.234;19.292;2022-12-07T05:53:47;27.50;;;13.30;;
69126;SDS011;56688;50.234;19.292;2022-12-07T05:56:14;29.90;;;13.40;;
69126;SDS011;56688;50.234;19.292;2022-12-07T05:58:41;23.70;;;11.50;;
69126;SDS011;56688;50.234;19.292;2022-12-07T06:01:23;22.20;;;11.90;;
69126;SDS011;56688;50.234;19.292;2022-12-07T06:03:50;25.90;;;12.60;;
69126;SDS011;56688;50.234;19.292;2022-12-07T06:06:17;27.30;;;12.70;;
69126;SDS011;56688;50.234;19.292;2022-12-07T06:08:44;23.50;;;12.40;;
69126;SDS011;56688;50.234;19.292;2022-12-07T06:11:10;23.00;;;11.00;;
69126;SDS011;56688;50.234;19.292;2022-12-07T06:13:53;20.50;;;11.00;;
69126;SDS011;56688;50.234;19.292;2022-12-07T06:16:19;19.60;;;9.40;;
69126;SDS011;56688;50.234;19.292;2022-12-07T06:18:46;24.10;;;11.80;;
69126;SDS011;56688;50.234;19.292;2022-12-07T06:21:13;18.50;;;10.90;;
69126;SDS011;56688;50.234;19.292;2022-12-07T06:23:40;22.70;;;11.00;;
69126;SDS011;56688;50.234;19.292;2022-12-07T06:26:08;21.60;;;11.00;;
69126;SDS011;56688;50.234;19.292;2022-12-07T06:28:35;18.10;;;11.00;;
69126;SDS011;56688;50.234;19.292;2022-12-07T06:31:01;22.10;;;11.00;;
69126;SDS011;56688;50.234;19.292;2022-12-07T06:33:28;18.30;;;10.50;;
69126;SDS011;56688;50.234;19.292;2022-12-07T06:35:55;21.30;;;11.40;;
69126;SDS011;56688;50.234;19.292;2022-12-07T06:38:22;21.70;;;11.20;;
69126;SDS011;56688;50.234;19.292;2022-12-07T06:40:49;20.30;;;10.70;;
69126;SDS011;56688;50.234;19.292;2022-12-07T06:43:16;22.50;;;11.30;;
69126;SDS011;56688;50.234;19.292;2022-12-07T06:45:42;20.30;;;10.50;;
69126;SDS011;56688;50.234;19.292;2022-12-07T06:48:09;21.70;;;11.70;;
69126;SDS011;56688;50.234;19.292;2022-12-07T06:50:37;18.80;;;11.30;;
69126;SDS011;56688;50.234;19.292;2022-12-07T06:53:03;20.80;;;12.20;;
69126;SDS011;56688;50.234;19.292;2022-12-07T06:55:30;22.50;;;11.90;;
69126;SDS011;56688;50.234;19.292;2022-12-07T06:57:57;24.00;;;11.70;;
69126;SDS011;56688;50.234;19.292;2022-12-07T07:00:24;23.70;;;12.10;;
69126;SDS011;56688;50.234;19.292;2022-12-07T07:02:51;24.50;;;12.70;;
69126;SDS011;56688;50.234;19.292;2022-12-07T07:05:18;20.40;;;10.50;;
69126;SDS011;56688;50.234;19.292;2022-12-07T07:07:45;15.70;;;9.60;;
69126;SDS011;56688;50.234;19.292;2022-12-07T07:10:32;24.90;;;12.80;;
69126;SDS011;56688;50.234;19.292;2022-12-07T07:12:58;21.70;;;11.50;;
69126;SDS011;56688;50.234;19.292;2022-12-07T07:15:25;20.00;;;10.50;;
69126;SDS011;56688;50.234;19.292;2022-12-07T07:17:53;20.00;;;10.70;;
69126;SDS011;56688;50.234;19.292;2022-12-07T07:20:20;15.20;;;8.90;;
69126;SDS011;56688;50.234;19.292;2022-12-07T07:22:47;19.20;;;10.10;;
69126;SDS011;56688;50.234;19.292;2022-12-07T07:25:15;15.70;;;9.00;;
69126;SDS011;56688;50.234;19.292;2022-12-07T07:27:42;16.30;;;8.70;;
69126;SDS011;56688;50.234;19.292;2022-12-07T07:30:08;15.80;;;8.30;;
69126;SDS011;56688;50.234;19.292;2022-12-07T07:32:36;15.60;;;8.70;;
69126;SDS011;56688;50.234;19.292;2022-12-07T07:35:03;14.30;;;8.40;;
69126;SDS011;56688;50.234;19.292;2022-12-07T07:37:30;14.70;;;8.60;;
69126;SDS011;56688;50.234;19.292;2022-12-07T07:39:57;14.90;;;8.50;;
69126;SDS011;56688;50.234;19.292;2022-12-07T07:42:23;14.00;;;8.70;;
69126;SDS011;56688;50.234;19.292;2022-12-07T07:44:50;13.80;;;7.80;;
69126;SDS011;56688;50.234;19.292;2022-12-07T07:47:17;15.90;;;8.90;;
69126;SDS011;56688;50.234;19.292;2022-12-07T07:49:44;13.60;;;8.60;;
69126;SDS011;56688;50.234;19.292;2022-12-07T07:52:13;15.30;;;8.20;;
69126;SDS011;56688;50.234;19.292;2022-12-07T07:54:40;13.70;;;8.40;;
69126;SDS011;56688;50.234;19.292;2022-12-07T07:57:07;10.90;;;6.90;;
69126;SDS011;56688;50.234;19.292;2022-12-07T07:59:34;13.80;;;7.80;;
69126;SDS011;56688;50.234;19.292;2022-12-07T08:02:01;13.50;;;7.90;;
69126;SDS011;56688;50.234;19.292;2022-12-07T08:04:27;13.40;;;7.90;;
69126;SDS011;56688;50.234;19.292;2022-12-07T08:06:54;12.90;;;7.60;;
69126;SDS011;56688;50.234;19.292;2022-12-07T08:09:21;12.40;;;7.70;;
69126;SDS011;56688;50.234;19.292;2022-12-07T08:11:48;12.00;;;7.40;;
69126;SDS011;56688;50.234;19.292;2022-12-07T08:14:15;10.10;;;6.20;;
69126;SDS011;56688;50.234;19.292;2022-12-07T08:16:41;12.80;;;7.80;;
69126;SDS011;56688;50.234;19.292;2022-12-07T08:19:08;12.00;;;7.50;;
69126;SDS011;56688;50.234;19.292;2022-12-07T08:21:35;10.70;;;6.50;;
69126;SDS011;56688;50.234;19.292;2022-12-07T08:24:02;13.30;;;8.10;;
69126;SDS011;56688;50.234;19.292;2022-12-07T08:26:29;12.70;;;7.40;;
69126;SDS011;56688;50.234;19.292;2022-12-07T08:28:56;14.80;;;8.20;;
69126;SDS011;56688;50.234;19.292;2022-12-07T08:31:22;16.90;;;7.90;;
69126;SDS011;56688;50.234;19.292;2022-12-07T08:33:49;9.50;;;6.10;;
69126;SDS011;56688;50.234;19.292;2022-12-07T08:36:16;12.60;;;7.20;;
69126;SDS011;56688;50.234;19.292;2022-12-07T08:38:44;13.80;;;8.00;;
69126;SDS011;56688;50.234;19.292;2022-12-07T08:41:31;12.80;;;8.00;;
69126;SDS011;56688;50.234;19.292;2022-12-07T08:43:58;15.00;;;8.50;;
69126;SDS011;56688;50.234;19.292;2022-12-07T08:46:27;15.10;;;7.60;;
69126;SDS011;56688;50.234;19.292;2022-12-07T08:49:03;14.10;;;8.80;;
69126;SDS011;56688;50.234;19.292;2022-12-07T08:51:34;15.40;;;9.00;;
69126;SDS011;56688;50.234;19.292;2022-12-07T08:54:03;16.20;;;7.70;;
69126;SDS011;56688;50.234;19.292;2022-12-07T08:56:31;16.20;;;8.10;;
69126;SDS011;56688;50.234;19.292;2022-12-07T08:58:58;14.60;;;8.90;;
69126;SDS011;56688;50.234;19.292;2022-12-07T09:01:26;16.60;;;9.40;;
69126;SDS011;56688;50.234;19.292;2022-12-07T09:03:53;13.60;;;8.80;;
69126;SDS011;56688;50.234;19.292;2022-12-07T09:06:20;16.10;;;9.40;;
69126;SDS011;56688;50.234;19.292;2022-12-07T09:08:48;19.40;;;10.80;;
69126;SDS011;56688;50.234;19.292;2022-12-07T09:11:17;15.60;;;8.80;;
69126;SDS011;56688;50.234;19.292;2022-12-07T09:13:49;16.60;;;9.80;;
69126;SDS011;56688;50.234;19.292;2022-12-07T09:16:16;15.70;;;9.80;;
69126;SDS011;56688;50.234;19.292;2022-12-07T09:18:43;13.40;;;9.10;;
69126;SDS011;56688;50.234;19.292;2022-12-07T09:21:09;17.40;;;8.60;;
69126;SDS011;56688;50.234;19.292;2022-12-07T09:23:36;20.80;;;10.40;;
69126;SDS011;56688;50.234;19.292;2022-12-07T09:26:03;16.10;;;9.30;;
69126;SDS011;56688;50.234;19.292;2022-12-07T09:28:36;13.00;;;7.20;;
69126;SDS011;56688;50.234;19.292;2022-12-07T09:31:04;16.40;;;9.60;;
69126;SDS011;56688;50.234;19.292;2022-12-07T09:33:54;14.10;;;8.70;;
69126;SDS011;56688;50.234;19.292;2022-12-07T09:36:22;16.30;;;9.20;;
69126;SDS011;56688;50.234;19.292;2022-12-07T09:38:49;17.70;;;10.10;;
69126;SDS011;56688;50.234;19.292;2022-12-07T09:41:16;19.20;;;10.40;;
69126;SDS011;56688;50.234;19.292;2022-12-07T09:43:43;18.90;;;10.70;;
69126;SDS011;56688;50.234;19.292;2022-12-07T09:46:12;19.30;;;10.40;;
69126;SDS011;56688;50.234;19.292;2022-12-07T09:48:42;13.70;;;7.90;;
69126;SDS011;56688;50.234;19.292;2022-12-07T09:51:13;15.30;;;9.10;;
69126;SDS011;56688;50.234;19.292;2022-12-07T09:53:50;15.70;;;9.50;;
69126;SDS011;56688;50.234;19.292;2022-12-07T09:56:18;22.20;;;11.10;;
69126;SDS011;56688;50.234;19.292;2022-12-07T09:58:46;21.40;;;13.00;;
69126;SDS011;56688;50.234;19.292;2022-12-07T10:01:16;20.40;;;11.90;;
69126;SDS011;56688;50.234;19.292;2022-12-07T10:03:48;15.10;;;10.00;;
69126;SDS011;56688;50.234;19.292;2022-12-07T10:06:18;15.30;;;9.90;;
69126;SDS011;56688;50.234;19.292;2022-12-07T10:08:45;16.10;;;9.20;;
69126;SDS011;56688;50.234;19.292;2022-12-07T10:11:12;15.90;;;9.80;;
69126;SDS011;56688;50.234;19.292;2022-12-07T10:13:42;18.60;;;10.80;;
69126;SDS011;56688;50.234;19.292;2022-12-07T10:24:43;16.60;;;9.60;;
69126;SDS011;56688;50.234;19.292;2022-12-07T10:27:17;15.50;;;9.80;;
69126;SDS011;56688;50.234;19.292;2022-12-07T10:29:49;16.40;;;9.60;;
69126;SDS011;56688;50.234;19.292;2022-12-07T10:34:44;13.90;;;8.30;;
69126;SDS011;56688;50.234;19.292;2022-12-07T10:37:18;15.80;;;8.60;;
69126;SDS011;56688;50.234;19.292;2022-12-07T10:39:47;11.10;;;8.10;;
69126;SDS011;56688;50.234;19.292;2022-12-07T10:50:14;12.60;;;7.50;;
69126;SDS011;56688;50.234;19.292;2022-12-07T10:55:25;11.70;;;5.80;;
69126;SDS011;56688;50.234;19.292;2022-12-07T11:00:58;9.70;;;6.30;;
69126;SDS011;56688;50.234;19.292;2022-12-07T11:09:00;10.60;;;7.60;;
69126;SDS011;56688;50.234;19.292;2022-12-07T11:11:40;12.80;;;8.40;;
69126;SDS011;56688;50.234;19.292;2022-12-07T11:17:02;15.40;;;8.50;;
69126;SDS011;56688;50.234;19.292;2022-12-07T11:30:28;10.30;;;6.70;;
69126;SDS011;56688;50.234;19.292;2022-12-07T11:33:10;13.40;;;7.20;;
69126;SDS011;56688;50.234;19.292;2022-12-07T11:35:45;11.80;;;7.00;;
69126;SDS011;56688;50.234;19.292;2022-12-07T11:38:33;10.80;;;7.70;;
69126;SDS011;56688;50.234;19.292;2022-12-07T11:41:11;12.20;;;7.40;;
69126;SDS011;56688;50.234;19.292;2022-12-07T11:43:44;10.70;;;7.00;;
69126;SDS011;56688;50.234;19.292;2022-12-07T11:46:19;9.40;;;6.20;;
69126;SDS011;56688;50.234;19.292;2022-12-07T11:48:54;11.10;;;7.00;;
69126;SDS011;56688;50.234;19.292;2022-12-07T11:51:37;10.60;;;7.00;;
69126;SDS011;56688;50.234;19.292;2022-12-07T11:54:16;13.00;;;7.30;;
69126;SDS011;56688;50.234;19.292;2022-12-07T11:56:48;11.10;;;8.00;;
69126;SDS011;56688;50.234;19.292;2022-12-07T11:59:22;10.80;;;6.80;;
69126;SDS011;56688;50.234;19.292;2022-12-07T12:01:58;11.00;;;7.00;;
69126;SDS011;56688;50.234;19.292;2022-12-07T12:07:25;10.20;;;6.00;;
69126;SDS011;56688;50.234;19.292;2022-12-07T12:10:16;10.00;;;5.90;;
69126;SDS011;56688;50.234;19.292;2022-12-07T12:18:27;28.30;;;9.10;;
69126;SDS011;56688;50.234;19.292;2022-12-07T12:21:00;11.90;;;6.50;;
69126;SDS011;56688;50.234;19.292;2022-12-07T12:26:21;11.40;;;5.70;;
69126;SDS011;56688;50.234;19.292;2022-12-07T12:28:52;10.80;;;5.50;;
69126;SDS011;56688;50.234;19.292;2022-12-07T12:33:50;8.40;;;6.10;;
69126;SDS011;56688;50.234;19.292;2022-12-07T12:44:18;8.80;;;5.90;;
69126;SDS011;56688;50.234;19.292;2022-12-07T12:54:20;9.20;;;5.00;;
69126;SDS011;56688;50.234;19.292;2022-12-07T12:59:28;8.70;;;5.70;;
69126;SDS011;56688;50.234;19.292;2022-12-07T13:04:56;10.10;;;5.70;;
69126;SDS011;56688;50.234;19.292;2022-12-07T13:12:57;9.60;;;6.20;;
69126;SDS011;56688;50.234;19.292;2022-12-07T13:18:22;8.20;;;4.70;;
69126;SDS011;56688;50.234;19.292;2022-12-07T13:20:54;6.00;;;4.70;;
69126;SDS011;56688;50.234;19.292;2022-12-07T13:23:24;6.40;;;4.40;;
69126;SDS011;56688;50.234;19.292;2022-12-07T13:31:37;15.60;;;9.40;;
69126;SDS011;56688;50.234;19.292;2022-12-07T13:37:02;9.50;;;5.80;;
69126;SDS011;56688;50.234;19.292;2022-12-07T13:44:53;7.30;;;4.20;;
69126;SDS011;56688;50.234;19.292;2022-12-07T13:50:21;10.70;;;6.40;;
69126;SDS011;56688;50.234;19.292;2022-12-07T13:52:54;7.40;;;5.50;;
69126;SDS011;56688;50.234;19.292;2022-12-07T13:55:22;12.40;;;7.90;;
69126;SDS011;56688;50.234;19.292;2022-12-07T13:57:50;7.30;;;4.30;;
69126;SDS011;56688;50.234;19.292;2022-12-07T14:00:19;8.20;;;6.00;;
69126;SDS011;56688;50.234;19.292;2022-12-07T14:02:58;9.00;;;5.20;;
69126;SDS011;56688;50.234;19.292;2022-12-07T14:05:28;10.00;;;5.90;;
69126;SDS011;56688;50.234;19.292;2022-12-07T14:08:00;7.00;;;4.90;;
69126;SDS011;56688;50.234;19.292;2022-12-07T14:12:57;32.30;;;16.60;;
69126;SDS011;56688;50.234;19.292;2022-12-07T14:15:27;20.20;;;14.00;;
69126;SDS011;56688;50.234;19.292;2022-12-07T14:17:57;10.80;;;8.50;;
69126;SDS011;56688;50.234;19.292;2022-12-07T14:22:55;7.60;;;3.70;;
69126;SDS011;56688;50.234;19.292;2022-12-07T14:25:24;17.50;;;9.00;;
69126;SDS011;56688;50.234;19.292;2022-12-07T14:27:55;6.00;;;3.80;;
69126;SDS011;56688;50.234;19.292;2022-12-07T14:30:32;10.70;;;8.60;;
69126;SDS011;56688;50.234;19.292;2022-12-07T14:33:01;6.50;;;4.00;;
69126;SDS011;56688;50.234;19.292;2022-12-07T14:35:31;8.40;;;4.90;;
69126;SDS011;56688;50.234;19.292;2022-12-07T14:37:58;6.30;;;4.30;;
69126;SDS011;56688;50.234;19.292;2022-12-07T14:40:27;7.10;;;4.80;;
69126;SDS011;56688;50.234;19.292;2022-12-07T14:42:57;9.10;;;5.40;;
69126;SDS011;56688;50.234;19.292;2022-12-07T14:45:28;5.80;;;3.40;;
69126;SDS011;56688;50.234;19.292;2022-12-07T14:47:55;7.60;;;4.30;;
69126;SDS011;56688;50.234;19.292;2022-12-07T14:50:43;10.10;;;4.90;;
69126;SDS011;56688;50.234;19.292;2022-12-07T14:53:36;11.90;;;7.00;;
69126;SDS011;56688;50.234;19.292;2022-12-07T14:56:07;7.20;;;4.90;;
69126;SDS011;56688;50.234;19.292;2022-12-07T14:58:34;9.10;;;5.10;;
69126;SDS011;56688;50.234;19.292;2022-12-07T15:01:01;10.60;;;5.60;;
69126;SDS011;56688;50.234;19.292;2022-12-07T15:03:28;6.90;;;4.40;;
69126;SDS011;56688;50.234;19.292;2022-12-07T15:05:56;7.80;;;5.10;;
69126;SDS011;56688;50.234;19.292;2022-12-07T15:08:23;9.70;;;6.30;;
69126;SDS011;56688;50.234;19.292;2022-12-07T15:10:50;8.60;;;4.50;;
69126;SDS011;56688;50.234;19.292;2022-12-07T15:13:16;11.00;;;5.10;;
69126;SDS011;56688;50.234;19.292;2022-12-07T15:15:59;8.20;;;4.80;;
69126;SDS011;56688;50.234;19.292;2022-12-07T15:18:26;10.60;;;5.40;;
69126;SDS011;56688;50.234;19.292;2022-12-07T15:20:53;8.90;;;5.30;;
69126;SDS011;56688;50.234;19.292;2022-12-07T15:23:20;10.10;;;5.90;;
69126;SDS011;56688;50.234;19.292;2022-12-07T15:25:47;7.90;;;4.10;;
69126;SDS011;56688;50.234;19.292;2022-12-07T15:28:15;11.00;;;5.90;;
69126;SDS011;56688;50.234;19.292;2022-12-07T15:30:42;8.90;;;4.80;;
69126;SDS011;56688;50.234;19.292;2022-12-07T15:33:10;10.70;;;5.80;;
69126;SDS011;56688;50.234;19.292;2022-12-07T15:35:39;12.70;;;5.80;;
69126;SDS011;56688;50.234;19.292;2022-12-07T15:38:09;15.60;;;7.90;;
69126;SDS011;56688;50.234;19.292;2022-12-07T15:40:35;13.00;;;6.20;;
69126;SDS011;56688;50.234;19.292;2022-12-07T15:43:03;12.30;;;7.20;;
69126;SDS011;56688;50.234;19.292;2022-12-07T15:45:30;14.40;;;7.00;;
69126;SDS011;56688;50.234;19.292;2022-12-07T15:47:57;11.60;;;5.60;;
69126;SDS011;56688;50.234;19.292;2022-12-07T15:50:44;10.80;;;6.00;;
69126;SDS011;56688;50.234;19.292;2022-12-07T15:53:11;15.20;;;6.80;;
69126;SDS011;56688;50.234;19.292;2022-12-07T15:55:39;15.60;;;6.70;;
69126;SDS011;56688;50.234;19.292;2022-12-07T15:58:06;13.80;;;7.10;;
69126;SDS011;56688;50.234;19.292;2022-12-07T16:00:34;16.10;;;7.90;;
69126;SDS011;56688;50.234;19.292;2022-12-07T16:03:00;11.40;;;6.90;;
69126;SDS011;56688;50.234;19.292;2022-12-07T16:05:27;27.20;;;12.80;;
69126;SDS011;56688;50.234;19.292;2022-12-07T16:07:54;21.40;;;10.70;;
69126;SDS011;56688;50.234;19.292;2022-12-07T16:10:21;16.10;;;8.40;;
69126;SDS011;56688;50.234;19.292;2022-12-07T16:12:48;16.70;;;8.60;;
69126;SDS011;56688;50.234;19.292;2022-12-07T16:15:15;18.50;;;9.70;;
69126;SDS011;56688;50.234;19.292;2022-12-07T16:17:49;15.20;;;8.40;;
69126;SDS011;56688;50.234;19.292;2022-12-07T16:20:17;13.30;;;7.60;;
69126;SDS011;56688;50.234;19.292;2022-12-07T16:22:44;40.70;;;14.30;;
69126;SDS011;56688;50.234;19.292;2022-12-07T16:25:10;57.00;;;15.60;;
69126;SDS011;56688;50.234;19.292;2022-12-07T16:27:37;44.50;;;13.20;;
69126;SDS011;56688;50.234;19.292;2022-12-07T16:30:04;17.70;;;7.50;;
69126;SDS011;56688;50.234;19.292;2022-12-07T16:32:31;21.80;;;9.20;;
69126;SDS011;56688;50.234;19.292;2022-12-07T16:34:58;84.00;;;20.00;;
69126;SDS011;56688;50.234;19.292;2022-12-07T16:37:25;13.80;;;7.90;;
69126;SDS011;56688;50.234;19.292;2022-12-07T16:39:52;16.90;;;7.70;;
69126;SDS011;56688;50.234;19.292;2022-12-07T16:42:19;20.80;;;8.30;;
69126;SDS011;56688;50.234;19.292;2022-12-07T16:44:45;9.60;;;5.70;;
69126;SDS011;56688;50.234;19.292;2022-12-07T16:47:12;18.30;;;7.60;;
69126;SDS011;56688;50.234;19.292;2022-12-07T16:49:39;30.00;;;12.20;;
69126;SDS011;56688;50.234;19.292;2022-12-07T16:52:06;29.00;;;12.00;;
69126;SDS011;56688;50.234;19.292;2022-12-07T16:54:48;17.00;;;8.00;;
69126;SDS011;56688;50.234;19.292;2022-12-07T16:57:16;22.20;;;9.30;;
69126;SDS011;56688;50.234;19.292;2022-12-07T16:59:49;17.10;;;8.20;;
69126;SDS011;56688;50.234;19.292;2022-12-07T17:02:18;24.30;;;9.30;;
69126;SDS011;56688;50.234;19.292;2022-12-07T17:05:16;15.10;;;7.10;;
69126;SDS011;56688;50.234;19.292;2022-12-07T17:07:43;16.80;;;7.30;;
69126;SDS011;56688;50.234;19.292;2022-12-07T17:10:10;86.10;;;29.20;;